KLM88B LSZH-EHAM
Flight info
| Callsign | KLM88B |
|---|---|
| Flight time | 1h 2m |
| Altitude | 32000 |
| Route | VEBIT T10 TORPA DCT EDOPI DCT GIVOR DCT SORAL DCT IBERA DCT BUB/N0447F300 Y28 HELEN |
| Aircraft | B739/M-SDE2E3FGHIRWXY/LB1 |
Departure
| Time | 2026-05-04 13:53 |
|---|---|
| Airport | Zürich Airport (LSZH) |
Arrival
| Time | 2026-05-04 14:55 |
|---|---|
| Airport | Amsterdam Airport Schiphol (EHAM) |
| Time | Latitude | Longitude | Altitude | Speed | Heading |
|---|---|---|---|---|---|
| 2026-05-04 13:31 | 47.45344 | 8.55660 | 1424 ft | 0 kts | 5° |
| 2026-05-04 13:40 | 47.45343 | 8.55659 | 1424 ft | 1 kts | 5° |
| 2026-05-04 13:41 | 47.45328 | 8.55658 | 1424 ft | 3 kts | 358° |
| 2026-05-04 13:41 | 47.45308 | 8.55662 | 1424 ft | 3 kts | 342° |
| 2026-05-04 13:41 | 47.45290 | 8.55673 | 1424 ft | 3 kts | 323° |
| 2026-05-04 13:42 | 47.45268 | 8.55719 | 1424 ft | 3 kts | 282° |
| 2026-05-04 13:42 | 47.45266 | 8.55734 | 1424 ft | 0 kts | 275° |
| 2026-05-04 13:45 | 47.45267 | 8.55732 | 1424 ft | 3 kts | 275° |
| 2026-05-04 13:45 | 47.45270 | 8.55669 | 1424 ft | 8 kts | 275° |
| 2026-05-04 13:45 | 47.45278 | 8.55589 | 1424 ft | 8 kts | 289° |
| 2026-05-04 13:45 | 47.45318 | 8.55534 | 1424 ft | 10 kts | 326° |
| 2026-05-04 13:46 | 47.45388 | 8.55480 | 1424 ft | 11 kts | 338° |
| 2026-05-04 13:46 | 47.45471 | 8.55437 | 1424 ft | 14 kts | 337° |
| 2026-05-04 13:46 | 47.45568 | 8.55373 | 1424 ft | 17 kts | 335° |
| 2026-05-04 13:46 | 47.45677 | 8.55304 | 1424 ft | 17 kts | 340° |
| 2026-05-04 13:47 | 47.45786 | 8.55244 | 1424 ft | 16 kts | 338° |
| 2026-05-04 13:47 | 47.45894 | 8.55175 | 1424 ft | 18 kts | 335° |
| 2026-05-04 13:47 | 47.46004 | 8.55098 | 1424 ft | 18 kts | 335° |
| 2026-05-04 13:47 | 47.46120 | 8.55017 | 1424 ft | 19 kts | 335° |
| 2026-05-04 13:48 | 47.46247 | 8.54928 | 1424 ft | 22 kts | 334° |
| 2026-05-04 13:48 | 47.46385 | 8.54829 | 1424 ft | 23 kts | 334° |
| 2026-05-04 13:48 | 47.46525 | 8.54733 | 1424 ft | 22 kts | 335° |
| 2026-05-04 13:48 | 47.46659 | 8.54641 | 1424 ft | 21 kts | 335° |
| 2026-05-04 13:49 | 47.46772 | 8.54520 | 1424 ft | 20 kts | 311° |
| 2026-05-04 13:49 | 47.46865 | 8.54378 | 1424 ft | 19 kts | 323° |
| 2026-05-04 13:49 | 47.46984 | 8.54286 | 1424 ft | 22 kts | 334° |
| 2026-05-04 13:49 | 47.47120 | 8.54191 | 1424 ft | 21 kts | 336° |
| 2026-05-04 13:50 | 47.47253 | 8.54102 | 1424 ft | 20 kts | 336° |
| 2026-05-04 13:50 | 47.47377 | 8.54019 | 1424 ft | 19 kts | 335° |
| 2026-05-04 13:50 | 47.47497 | 8.53935 | 1424 ft | 18 kts | 336° |
| 2026-05-04 13:50 | 47.47593 | 8.53825 | 1424 ft | 17 kts | 294° |
| 2026-05-04 13:51 | 47.47572 | 8.53672 | 1424 ft | 13 kts | 243° |
| 2026-05-04 13:51 | 47.47498 | 8.53645 | 1424 ft | 12 kts | 158° |
| 2026-05-04 13:51 | 47.47422 | 8.53697 | 1424 ft | 12 kts | 154° |
| 2026-05-04 13:51 | 47.47334 | 8.53761 | 1424 ft | 22 kts | 154° |
| 2026-05-04 13:52 | 47.46446 | 8.54376 | 1424 ft | 122 kts | 155° |
| 2026-05-04 13:52 | 47.45533 | 8.54999 | 1426 ft | 165 kts | 153° |
| 2026-05-04 13:52 | 47.44472 | 8.55759 | 1852 ft | 171 kts | 153° |
| 2026-05-04 13:53 | 47.43359 | 8.56548 | 2271 ft | 185 kts | 156° |
| 2026-05-04 13:53 | 47.42154 | 8.57445 | 2564 ft | 207 kts | 140° |
| 2026-05-04 13:53 | 47.41510 | 8.58564 | 2653 ft | 228 kts | 117° |
| 2026-05-04 13:54 | 47.41854 | 8.63358 | 3805 ft | 253 kts | 50° |
| 2026-05-04 13:54 | 47.43280 | 8.64746 | 4946 ft | 245 kts | 16° |
| 2026-05-04 13:54 | 47.46249 | 8.63223 | 7010 ft | 239 kts | 309° |
| 2026-05-04 13:55 | 47.46976 | 8.60928 | 7563 ft | 254 kts | 281° |
| 2026-05-04 13:55 | 47.46882 | 8.55576 | 8928 ft | 268 kts | 252° |
| 2026-05-04 13:55 | 47.46166 | 8.53035 | 9732 ft | 268 kts | 242° |
| 2026-05-04 13:56 | 47.45294 | 8.50562 | 10434 ft | 275 kts | 240° |
| 2026-05-04 13:56 | 47.44379 | 8.48051 | 11150 ft | 281 kts | 240° |
| 2026-05-04 13:56 | 47.42415 | 8.42700 | 12063 ft | 313 kts | 240° |
| 2026-05-04 13:57 | 47.41371 | 8.39774 | 12362 ft | 332 kts | 240° |
| 2026-05-04 13:57 | 47.40251 | 8.36670 | 12651 ft | 351 kts | 240° |
| 2026-05-04 13:58 | 47.36649 | 8.26861 | 14526 ft | 369 kts | 239° |
| 2026-05-04 13:58 | 47.34168 | 8.20163 | 15937 ft | 376 kts | 239° |
| 2026-05-04 13:58 | 47.32911 | 8.16777 | 16620 ft | 379 kts | 239° |
| 2026-05-04 13:59 | 47.31638 | 8.13351 | 17257 ft | 382 kts | 239° |
| 2026-05-04 13:59 | 47.30355 | 8.09899 | 17908 ft | 385 kts | 239° |
| 2026-05-04 13:59 | 47.28761 | 8.02338 | 19088 ft | 400 kts | 266° |
| 2026-05-04 14:00 | 47.29143 | 7.98249 | 19653 ft | 409 kts | 283° |
| 2026-05-04 14:00 | 47.31944 | 7.90823 | 20719 ft | 423 kts | 301° |
| 2026-05-04 14:00 | 47.33597 | 7.87225 | 21214 ft | 426 kts | 301° |
| 2026-05-04 14:01 | 47.35259 | 7.83593 | 21697 ft | 429 kts | 301° |
| 2026-05-04 14:01 | 47.36930 | 7.79940 | 22171 ft | 431 kts | 300° |
| 2026-05-04 14:01 | 47.40310 | 7.72548 | 23046 ft | 437 kts | 300° |
| 2026-05-04 14:02 | 47.42012 | 7.68821 | 23480 ft | 439 kts | 300° |
| 2026-05-04 14:02 | 47.43723 | 7.65072 | 23880 ft | 442 kts | 300° |
| 2026-05-04 14:02 | 47.45441 | 7.61305 | 24265 ft | 444 kts | 300° |
| 2026-05-04 14:02 | 47.47174 | 7.57497 | 24652 ft | 447 kts | 300° |
| 2026-05-04 14:03 | 47.48914 | 7.53674 | 25022 ft | 449 kts | 300° |
| 2026-05-04 14:03 | 47.50685 | 7.49858 | 25378 ft | 451 kts | 301° |
| 2026-05-04 14:03 | 47.52461 | 7.46026 | 25720 ft | 453 kts | 300° |
| 2026-05-04 14:03 | 47.54264 | 7.42108 | 26054 ft | 455 kts | 300° |
| 2026-05-04 14:04 | 47.57827 | 7.34305 | 26681 ft | 459 kts | 300° |
| 2026-05-04 14:04 | 47.59612 | 7.30377 | 26959 ft | 461 kts | 300° |
| 2026-05-04 14:04 | 47.61403 | 7.26426 | 27250 ft | 463 kts | 300° |
| 2026-05-04 14:05 | 47.65004 | 7.18465 | 27778 ft | 467 kts | 300° |
| 2026-05-04 14:05 | 47.66809 | 7.14464 | 28067 ft | 467 kts | 299° |
| 2026-05-04 14:05 | 47.68619 | 7.10446 | 28434 ft | 466 kts | 299° |
| 2026-05-04 14:06 | 47.70416 | 7.06450 | 28787 ft | 465 kts | 299° |
| 2026-05-04 14:06 | 47.72211 | 7.02453 | 29107 ft | 465 kts | 299° |
| 2026-05-04 14:06 | 47.74006 | 6.98452 | 29396 ft | 465 kts | 299° |
| 2026-05-04 14:06 | 47.75813 | 6.94469 | 29708 ft | 465 kts | 300° |
| 2026-05-04 14:07 | 47.77618 | 6.90485 | 30025 ft | 464 kts | 299° |
| 2026-05-04 14:07 | 47.79408 | 6.86486 | 30331 ft | 463 kts | 298° |
| 2026-05-04 14:07 | 47.81186 | 6.82490 | 30641 ft | 462 kts | 298° |
| 2026-05-04 14:07 | 47.82955 | 6.78499 | 30957 ft | 461 kts | 298° |
| 2026-05-04 14:08 | 47.84719 | 6.74513 | 31230 ft | 461 kts | 298° |
| 2026-05-04 14:08 | 47.86479 | 6.70531 | 31485 ft | 461 kts | 298° |
| 2026-05-04 14:08 | 47.88237 | 6.66552 | 31784 ft | 459 kts | 298° |
| 2026-05-04 14:08 | 47.90029 | 6.62607 | 31968 ft | 464 kts | 302° |
| 2026-05-04 14:09 | 47.95183 | 6.56618 | 32018 ft | 485 kts | 332° |
| 2026-05-04 14:09 | 47.98400 | 6.55052 | 32022 ft | 489 kts | 343° |
| 2026-05-04 14:10 | 48.05134 | 6.53567 | 32020 ft | 489 kts | 350° |
| 2026-05-04 14:10 | 48.11874 | 6.52174 | 32019 ft | 489 kts | 348° |
| 2026-05-04 14:11 | 48.18632 | 6.50590 | 32021 ft | 488 kts | 347° |
| 2026-05-04 14:11 | 48.28698 | 6.48174 | 32023 ft | 488 kts | 347° |
| 2026-05-04 14:12 | 48.35404 | 6.46563 | 32023 ft | 488 kts | 347° |
| 2026-05-04 14:13 | 48.45460 | 6.44121 | 32021 ft | 488 kts | 347° |
| 2026-05-04 14:13 | 48.52157 | 6.42480 | 32022 ft | 488 kts | 347° |
| 2026-05-04 14:14 | 48.58851 | 6.40835 | 32023 ft | 487 kts | 347° |
| 2026-05-04 14:14 | 48.68979 | 6.39370 | 32023 ft | 491 kts | 359° |
| 2026-05-04 14:15 | 48.82628 | 6.40801 | 32023 ft | 490 kts | 1° |
| 2026-05-04 14:16 | 48.92840 | 6.41867 | 32023 ft | 490 kts | 1° |
| 2026-05-04 14:17 | 49.03041 | 6.42929 | 32022 ft | 490 kts | 1° |
| 2026-05-04 14:18 | 49.13193 | 6.42782 | 32020 ft | 484 kts | 348° |
| 2026-05-04 14:19 | 49.26204 | 6.37757 | 32014 ft | 480 kts | 340° |
| 2026-05-04 14:19 | 49.32650 | 6.35066 | 32009 ft | 480 kts | 340° |
| 2026-05-04 14:20 | 49.39091 | 6.32383 | 32005 ft | 480 kts | 340° |
| 2026-05-04 14:20 | 49.45537 | 6.29695 | 32000 ft | 480 kts | 340° |
| 2026-05-04 14:21 | 49.51640 | 6.25852 | 31997 ft | 470 kts | 325° |
| 2026-05-04 14:21 | 49.54392 | 6.23182 | 31996 ft | 467 kts | 320° |
| 2026-05-04 14:21 | 49.59521 | 6.17131 | 31994 ft | 463 kts | 315° |
| 2026-05-04 14:22 | 49.64564 | 6.10934 | 31994 ft | 463 kts | 316° |
| 2026-05-04 14:22 | 49.69610 | 6.04765 | 31993 ft | 463 kts | 316° |
| 2026-05-04 14:23 | 49.77192 | 5.95493 | 31992 ft | 464 kts | 316° |
| 2026-05-04 14:24 | 49.82287 | 5.89357 | 31991 ft | 464 kts | 316° |
| 2026-05-04 14:24 | 49.87372 | 5.83192 | 31990 ft | 464 kts | 316° |
| 2026-05-04 14:25 | 49.92440 | 5.77001 | 31990 ft | 464 kts | 316° |
| 2026-05-04 14:25 | 50.00031 | 5.67680 | 31987 ft | 464 kts | 316° |
| 2026-05-04 14:26 | 50.04260 | 5.62467 | 31987 ft | 463 kts | 316° |
| 2026-05-04 14:26 | 50.09309 | 5.56227 | 31987 ft | 464 kts | 316° |
| 2026-05-04 14:27 | 50.14354 | 5.49974 | 31988 ft | 463 kts | 316° |
| 2026-05-04 14:27 | 50.19400 | 5.43703 | 31991 ft | 463 kts | 315° |
| 2026-05-04 14:28 | 50.24441 | 5.37419 | 31992 ft | 463 kts | 315° |
| 2026-05-04 14:28 | 50.29475 | 5.31127 | 31992 ft | 463 kts | 315° |
| 2026-05-04 14:29 | 50.39540 | 5.18493 | 31993 ft | 464 kts | 315° |
| 2026-05-04 14:30 | 50.44573 | 5.12148 | 31993 ft | 464 kts | 315° |
| 2026-05-04 14:31 | 50.52113 | 5.02609 | 31994 ft | 464 kts | 315° |
| 2026-05-04 14:32 | 50.62193 | 4.89794 | 31994 ft | 465 kts | 315° |
| 2026-05-04 14:32 | 50.67232 | 4.83405 | 31994 ft | 465 kts | 315° |
| 2026-05-04 14:33 | 50.72254 | 4.77001 | 31994 ft | 464 kts | 315° |
| 2026-05-04 14:33 | 50.77261 | 4.70551 | 31994 ft | 464 kts | 315° |
| 2026-05-04 14:34 | 50.82262 | 4.64085 | 31994 ft | 464 kts | 315° |
| 2026-05-04 14:34 | 50.87220 | 4.57584 | 31977 ft | 461 kts | 312° |
| 2026-05-04 14:35 | 50.91437 | 4.50103 | 31967 ft | 452 kts | 300° |
| 2026-05-04 14:35 | 50.94903 | 4.41843 | 31965 ft | 448 kts | 296° |
| 2026-05-04 14:36 | 50.98158 | 4.33434 | 31908 ft | 447 kts | 295° |
| 2026-05-04 14:36 | 50.99775 | 4.29222 | 31375 ft | 445 kts | 295° |
| 2026-05-04 14:36 | 51.01382 | 4.25026 | 30635 ft | 444 kts | 295° |
| 2026-05-04 14:36 | 51.02988 | 4.20825 | 29710 ft | 447 kts | 295° |
| 2026-05-04 14:37 | 51.04588 | 4.16636 | 28732 ft | 451 kts | 296° |
| 2026-05-04 14:37 | 51.05943 | 4.13085 | 27893 ft | 454 kts | 296° |
| 2026-05-04 14:37 | 51.07620 | 4.08812 | 26862 ft | 458 kts | 299° |
| 2026-05-04 14:37 | 51.09586 | 4.04764 | 25795 ft | 466 kts | 307° |
| 2026-05-04 14:38 | 51.11860 | 4.01089 | 25002 ft | 466 kts | 313° |
| 2026-05-04 14:38 | 51.14359 | 3.97751 | 24346 ft | 461 kts | 318° |
| 2026-05-04 14:38 | 51.16902 | 3.94791 | 23643 ft | 456 kts | 320° |
| 2026-05-04 14:38 | 51.19483 | 3.91791 | 22905 ft | 451 kts | 320° |
| 2026-05-04 14:39 | 51.22171 | 3.89216 | 22215 ft | 451 kts | 331° |
| 2026-05-04 14:39 | 51.25117 | 3.87547 | 21529 ft | 450 kts | 343° |
| 2026-05-04 14:39 | 51.28194 | 3.86744 | 20868 ft | 447 kts | 352° |
| 2026-05-04 14:40 | 51.34355 | 3.86518 | 19568 ft | 438 kts | 359° |
| 2026-05-04 14:40 | 51.37377 | 3.86560 | 18938 ft | 432 kts | 358° |
| 2026-05-04 14:40 | 51.40357 | 3.86544 | 18310 ft | 426 kts | 358° |
| 2026-05-04 14:40 | 51.43302 | 3.86500 | 17671 ft | 421 kts | 357° |
| 2026-05-04 14:41 | 51.46217 | 3.86443 | 17010 ft | 416 kts | 357° |
| 2026-05-04 14:41 | 51.49097 | 3.86379 | 16348 ft | 412 kts | 357° |
| 2026-05-04 14:41 | 51.54778 | 3.86246 | 15046 ft | 404 kts | 357° |
| 2026-05-04 14:42 | 51.60343 | 3.86111 | 13768 ft | 396 kts | 358° |
| 2026-05-04 14:42 | 51.63080 | 3.86044 | 13130 ft | 392 kts | 358° |
| 2026-05-04 14:42 | 51.65799 | 3.85978 | 12501 ft | 388 kts | 358° |
| 2026-05-04 14:43 | 51.68493 | 3.85919 | 11867 ft | 385 kts | 359° |
| 2026-05-04 14:43 | 51.71137 | 3.86415 | 11225 ft | 383 kts | 14° |
| 2026-05-04 14:43 | 51.73579 | 3.88050 | 10619 ft | 380 kts | 28° |
| 2026-05-04 14:43 | 51.75752 | 3.90447 | 9996 ft | 377 kts | 38° |
| 2026-05-04 14:44 | 51.77705 | 3.93234 | 9392 ft | 373 kts | 43° |
| 2026-05-04 14:44 | 51.79570 | 3.96115 | 8787 ft | 369 kts | 43° |
| 2026-05-04 14:44 | 51.81435 | 3.98920 | 8190 ft | 365 kts | 42° |
| 2026-05-04 14:44 | 51.83305 | 4.01663 | 7597 ft | 360 kts | 41° |
| 2026-05-04 14:45 | 51.85153 | 4.04356 | 7011 ft | 356 kts | 41° |
| 2026-05-04 14:45 | 51.86988 | 4.07017 | 6437 ft | 352 kts | 41° |
| 2026-05-04 14:45 | 51.88812 | 4.09556 | 6204 ft | 339 kts | 39° |
| 2026-05-04 14:45 | 51.90582 | 4.11928 | 6109 ft | 321 kts | 39° |
| 2026-05-04 14:46 | 51.92260 | 4.14163 | 6039 ft | 304 kts | 39° |
| 2026-05-04 14:46 | 51.93846 | 4.16280 | 5978 ft | 287 kts | 39° |
| 2026-05-04 14:46 | 51.95331 | 4.18264 | 5969 ft | 274 kts | 39° |
| 2026-05-04 14:46 | 51.96817 | 4.20209 | 5954 ft | 264 kts | 38° |
| 2026-05-04 14:47 | 51.98230 | 4.22066 | 5916 ft | 260 kts | 38° |
| 2026-05-04 14:47 | 51.99627 | 4.23918 | 5670 ft | 258 kts | 39° |
| 2026-05-04 14:47 | 52.01004 | 4.25754 | 5418 ft | 254 kts | 39° |
| 2026-05-04 14:47 | 52.02355 | 4.27563 | 5163 ft | 250 kts | 39° |
| 2026-05-04 14:48 | 52.03685 | 4.29349 | 4911 ft | 246 kts | 39° |
| 2026-05-04 14:48 | 52.04991 | 4.31106 | 4661 ft | 242 kts | 39° |
| 2026-05-04 14:48 | 52.06280 | 4.32844 | 4409 ft | 239 kts | 39° |
| 2026-05-04 14:48 | 52.07550 | 4.34558 | 4156 ft | 236 kts | 39° |
| 2026-05-04 14:49 | 52.08805 | 4.36253 | 3905 ft | 233 kts | 39° |
| 2026-05-04 14:49 | 52.10040 | 4.37922 | 3654 ft | 230 kts | 39° |
| 2026-05-04 14:49 | 52.11261 | 4.39573 | 3403 ft | 227 kts | 39° |
| 2026-05-04 14:49 | 52.12466 | 4.41203 | 3151 ft | 224 kts | 39° |
| 2026-05-04 14:50 | 52.13655 | 4.42813 | 2901 ft | 221 kts | 39° |
| 2026-05-04 14:50 | 52.14802 | 4.44366 | 2664 ft | 220 kts | 39° |
| 2026-05-04 14:50 | 52.15975 | 4.45954 | 2424 ft | 219 kts | 39° |
| 2026-05-04 14:50 | 52.17129 | 4.47515 | 2217 ft | 212 kts | 39° |
| 2026-05-04 14:51 | 52.18246 | 4.49024 | 2018 ft | 203 kts | 39° |
| 2026-05-04 14:51 | 52.19293 | 4.50442 | 2012 ft | 190 kts | 39° |
| 2026-05-04 14:51 | 52.20288 | 4.51805 | 1993 ft | 184 kts | 41° |
| 2026-05-04 14:51 | 52.21103 | 4.53392 | 1977 ft | 182 kts | 54° |
| 2026-05-04 14:52 | 52.21776 | 4.55137 | 1987 ft | 182 kts | 57° |
| 2026-05-04 14:52 | 52.22445 | 4.56906 | 1996 ft | 184 kts | 57° |
| 2026-05-04 14:52 | 52.23120 | 4.58673 | 1999 ft | 184 kts | 57° |
| 2026-05-04 14:52 | 52.23806 | 4.60459 | 1900 ft | 188 kts | 57° |
| 2026-05-04 14:53 | 52.24501 | 4.62264 | 1654 ft | 185 kts | 57° |
| 2026-05-04 14:53 | 52.25158 | 4.63971 | 1470 ft | 171 kts | 57° |
| 2026-05-04 14:53 | 52.25786 | 4.65602 | 1204 ft | 163 kts | 56° |
| 2026-05-04 14:53 | 52.26369 | 4.67118 | 969 ft | 157 kts | 56° |
| 2026-05-04 14:54 | 52.26950 | 4.68627 | 764 ft | 154 kts | 56° |
| 2026-05-04 14:54 | 52.27515 | 4.70095 | 565 ft | 152 kts | 56° |
| 2026-05-04 14:54 | 52.28082 | 4.71566 | 362 ft | 154 kts | 56° |
| 2026-05-04 14:54 | 52.28654 | 4.73037 | 164 ft | 153 kts | 56° |
| 2026-05-04 14:55 | 52.29193 | 4.74459 | 21 ft | 139 kts | 56° |
| 2026-05-04 14:55 | 52.29627 | 4.75591 | 13 ft | 83 kts | 57° |
| 2026-05-04 14:55 | 52.29851 | 4.76165 | 13 ft | 49 kts | 57° |
| 2026-05-04 14:55 | 52.29982 | 4.76475 | 13 ft | 26 kts | 41° |
| 2026-05-04 14:56 | 52.30117 | 4.76613 | 13 ft | 17 kts | 28° |
| 2026-05-04 14:56 | 52.30197 | 4.76683 | 13 ft | 11 kts | 28° |
| 2026-05-04 14:56 | 52.30245 | 4.76726 | 13 ft | 6 kts | 28° |
| 2026-05-04 14:56 | 52.30280 | 4.76755 | 13 ft | 6 kts | 19° |
| 2026-05-04 14:57 | 52.30317 | 4.76751 | 13 ft | 5 kts | 334° |
| 2026-05-04 14:57 | 52.30337 | 4.76702 | 13 ft | 5 kts | 291° |
| 2026-05-04 14:57 | 52.30348 | 4.76646 | 13 ft | 5 kts | 285° |
| 2026-05-04 14:57 | 52.30359 | 4.76594 | 13 ft | 5 kts | 299° |
| 2026-05-04 14:58 | 52.30382 | 4.76556 | 13 ft | 5 kts | 327° |
| 2026-05-04 14:58 | 52.30403 | 4.76536 | 13 ft | 4 kts | 330° |
| 2026-05-04 14:58 | 52.30433 | 4.76510 | 13 ft | 6 kts | 331° |
| 2026-05-04 14:58 | 52.30454 | 4.76489 | 13 ft | 4 kts | 328° |
| 2026-05-04 14:59 | 52.30472 | 4.76476 | 13 ft | 1 kts | 359° |
| 2026-05-04 14:59 | 52.30477 | 4.76478 | 13 ft | 1 kts | 30° |
| 2026-05-04 14:59 | 52.30495 | 4.76517 | 13 ft | 2 kts | 60° |
| 2026-05-04 15:00 | 52.30500 | 4.76534 | 13 ft | 2 kts | 62° |
| 2026-05-04 15:00 | 52.30505 | 4.76547 | 13 ft | 0 kts | 58° |